Time;durP1;ratioP1;P1;durP2;ratioP2;P2;SDS_P1;SDS_P2;PMS_P1;PMS_P2;Temp;Humidity;BMP_temperature;BMP_pressure;BME280_temperature;BME280_humidity;BME280_pressure;Samples;Min_cycle;Max_cycle;Signal;HPM_P1;HPM_P2
2021/08/30 00:00:09;;;;;;;7.70;6.68;;;;;;;13.88;69.36;98092.22;5014571;28;20060;-72
2021/08/30 00:02:35;;;;;;;7.63;5.97;;;;;;;13.85;69.11;98087.34;5031707;28;20021;-72
2021/08/30 00:05:02;;;;;;;9.65;6.07;;;;;;;13.89;69.47;98093.84;5014095;28;20056;-72
2021/08/30 00:07:28;;;;;;;8.82;6.70;;;;;;;13.94;69.30;98090.91;5031865;28;20025;-74
2021/08/30 00:09:53;;;;;;;11.25;7.00;;;;;;;14.01;69.38;98089.59;5014760;28;20071;-73
2021/08/30 00:12:19;;;;;;;7.80;6.55;;;;;;;14.09;69.48;98088.75;5032686;28;20083;-73
2021/08/30 00:14:45;;;;;;;8.40;6.70;;;;;;;14.13;69.54;98079.50;5032848;28;20104;-73
2021/08/30 00:17:10;;;;;;;7.75;6.22;;;;;;;14.22;69.27;98079.47;5032915;28;20037;-73
2021/08/30 00:19:36;;;;;;;8.13;6.75;;;;;;;14.26;69.48;98085.94;5032867;28;20024;-73
2021/08/30 00:22:02;;;;;;;7.80;6.50;;;;;;;14.25;69.62;98078.00;5032743;28;20029;-73
2021/08/30 00:24:28;;;;;;;7.22;6.13;;;;;;;14.28;69.33;98072.63;5032762;28;20501;-74
2021/08/30 00:26:54;;;;;;;9.32;6.68;;;;;;;14.38;69.31;98076.16;5032868;28;20049;-73
2021/08/30 00:29:25;;;;;;;8.52;6.88;;;;;;;14.44;69.12;98081.16;5032573;28;20029;-73
2021/08/30 00:31:54;;;;;;;9.43;6.68;;;;;;;14.52;69.49;98082.25;5032701;28;20030;-72
2021/08/30 00:34:20;;;;;;;8.93;6.93;;;;;;;14.57;68.94;98082.06;5032620;28;20033;-73
2021/08/30 00:36:45;;;;;;;10.07;7.05;;;;;;;14.61;69.02;98078.66;5032444;28;20030;-73
2021/08/30 00:39:11;;;;;;;9.00;6.75;;;;;;;14.62;68.98;98078.34;5032556;28;20022;-72
2021/08/30 00:41:36;;;;;;;8.50;7.03;;;;;;;14.63;69.15;98084.66;5032347;28;20021;-73
2021/08/30 00:44:01;;;;;;;8.57;6.90;;;;;;;14.62;69.07;98080.28;5014718;28;20023;-73
2021/08/30 00:46:27;;;;;;;8.07;7.00;;;;;;;14.61;69.26;98086.94;5032504;28;20048;-72
2021/08/30 00:48:52;;;;;;;8.15;6.57;;;;;;;14.59;69.36;98081.75;5032454;28;20040;-73
2021/08/30 00:51:19;;;;;;;9.13;6.43;;;;;;;14.58;68.90;98083.69;5031623;28;20152;-73
2021/08/30 00:53:49;;;;;;;9.27;6.22;;;;;;;14.56;68.95;98080.47;5029554;28;20107;-71
2021/08/30 00:56:17;;;;;;;7.72;6.07;;;;;;;14.52;68.49;98071.22;5032307;28;20498;-73
2021/08/30 00:58:43;;;;;;;6.63;5.65;;;;;;;14.36;68.67;98064.66;5031477;28;20032;-73
2021/08/30 01:01:10;;;;;;;7.75;6.03;;;;;;;14.27;68.45;98059.16;5032002;28;20025;-73
2021/08/30 01:03:37;;;;;;;6.43;5.65;;;;;;;14.22;68.95;98068.44;5027442;28;20037;-73
2021/08/30 01:06:22;;;;;;;6.93;5.97;;;;;;;14.24;69.28;98074.44;5027970;28;20025;-73
2021/08/30 01:08:54;;;;;;;8.48;6.70;;;;;;;14.13;68.77;98071.22;5012310;28;20047;-74
2021/08/30 01:11:24;;;;;;;8.57;6.88;;;;;;;14.09;68.69;98077.72;5031585;28;20075;-74
2021/08/30 01:14:00;;;;;;;9.25;8.35;;;;;;;14.09;69.24;98085.97;5031709;28;20536;-73
2021/08/30 01:16:27;;;;;;;11.65;9.05;;;;;;;14.09;69.07;98069.44;5029311;28;20037;-74
2021/08/30 01:18:54;;;;;;;11.02;8.73;;;;;;;14.14;69.34;98083.88;5031531;28;20029;-73
2021/08/30 01:21:23;;;;;;;10.23;8.90;;;;;;;14.13;69.15;98076.75;5014060;28;20030;-73
2021/08/30 01:23:59;;;;;;;9.63;8.70;;;;;;;14.12;68.96;98074.31;5031409;28;20044;-73
2021/08/30 01:26:26;;;;;;;11.57;8.50;;;;;;;14.13;69.15;98070.41;5029019;28;20367;-74
2021/08/30 01:29:13;;;;;;;8.35;7.45;;;;;;;14.10;69.35;98076.56;5031387;28;20021;-73
2021/08/30 01:31:50;;;;;;;9.38;7.55;;;;;;;14.08;69.50;98074.16;5011065;28;20026;-74
2021/08/30 01:34:17;;;;;;;10.05;7.97;;;;;;;14.04;69.02;98078.72;5013494;28;20114;-74
2021/08/30 01:36:45;;;;;;;10.63;8.60;;;;;;;14.04;69.10;98070.44;5031266;28;20025;-73
2021/08/30 01:39:11;;;;;;;10.80;8.98;;;;;;;14.02;69.24;98069.97;5031367;28;20061;-74
2021/08/30 01:41:38;;;;;;;12.65;9.15;;;;;;;14.03;69.16;98070.78;5030678;28;20500;-74
2021/08/30 01:44:06;;;;;;;10.25;9.15;;;;;;;13.94;69.21;98068.84;5031143;28;20067;-74
2021/08/30 01:46:34;;;;;;;9.65;8.65;;;;;;;13.87;69.35;98063.03;5028691;28;20482;-73
2021/08/30 01:49:02;;;;;;;11.20;9.80;;;;;;;13.88;69.16;98064.66;5031093;28;20044;-74
2021/08/30 01:51:28;;;;;;;10.40;9.30;;;;;;;13.90;69.53;98059.63;5031035;28;20104;-73
2021/08/30 01:53:55;;;;;;;9.82;8.82;;;;;;;13.87;69.46;98053.94;5013258;28;20028;-73
2021/08/30 01:56:23;;;;;;;12.65;9.88;;;;;;;13.81;69.51;98058.81;5030932;28;20079;-74
2021/08/30 02:01:34;;;;;;;11.65;9.30;;;;;;;13.73;69.61;98051.38;5028362;28;20037;-74
2021/08/30 02:04:01;;;;;;;12.15;9.70;;;;;;;13.67;69.62;98054.28;5030804;28;20047;-74
2021/08/30 02:06:26;;;;;;;13.68;10.48;;;;;;;13.66;69.82;98047.16;5013137;28;20028;-74
2021/08/30 02:08:54;;;;;;;11.80;9.52;;;;;;;13.63;70.07;98047.03;5030761;28;20021;-73
2021/08/30 02:11:25;;;;;;;12.00;9.73;;;;;;;13.54;69.90;98053.34;5030790;28;20385;-74
2021/08/30 02:13:51;;;;;;;12.30;10.15;;;;;;;13.46;69.46;98059.66;5028272;28;20018;-74
2021/08/30 02:16:16;;;;;;;12.00;10.10;;;;;;;13.45;70.33;98058.03;5032801;28;20168;-74
2021/08/30 02:19:00;;;;;;;13.10;9.48;;;;;;;13.47;70.01;98058.53;5034971;28;20026;-74
2021/08/30 02:21:45;;;;;;;11.43;9.98;;;;;;;13.47;70.02;98058.53;5033946;28;20412;-73
2021/08/30 02:24:41;;;;;;;11.00;9.80;;;;;;;13.47;70.63;98054.97;5016239;28;20045;-72
2021/08/30 02:27:14;;;;;;;10.13;8.32;;;;;;;13.43;70.35;98065.03;5033246;28;20420;-71
2021/08/30 02:29:47;;;;;;;10.13;8.65;;;;;;;13.42;70.43;98052.38;5032188;28;20029;-72
2021/08/30 02:32:14;;;;;;;15.27;11.18;;;;;;;13.42;70.50;98053.22;5034538;28;20021;-71
2021/08/30 02:34:43;;;;;;;12.25;9.30;;;;;;;13.37;71.21;98050.59;5034500;28;20044;-72
2021/08/30 02:37:10;;;;;;;11.65;8.95;;;;;;;13.35;70.58;98061.91;5034857;28;20466;-72
2021/08/30 02:39:37;;;;;;;12.95;10.00;;;;;;;13.31;70.84;98068.41;5034638;28;20024;-72
2021/08/30 02:42:05;;;;;;;11.10;9.25;;;;;;;13.28;70.94;98061.59;5034785;28;20466;-73
2021/08/30 02:44:31;;;;;;;11.65;9.20;;;;;;;13.28;70.94;98064.34;5034606;28;20037;-72
2021/08/30 02:46:57;;;;;;;10.70;9.32;;;;;;;13.29;70.97;98062.41;5034415;28;20017;-72
2021/08/30 02:49:23;;;;;;;13.10;10.13;;;;;;;13.30;71.02;98058.53;5034097;28;20576;-72
2021/08/30 02:51:50;;;;;;;12.93;10.00;;;;;;;13.31;71.18;98057.41;5034229;28;20048;-73
2021/08/30 02:54:17;;;;;;;15.07;10.05;;;;;;;13.30;71.29;98055.78;5033395;28;20358;-72
2021/08/30 02:56:44;;;;;;;10.73;8.93;;;;;;;13.25;71.01;98056.72;5033518;28;20072;-72
2021/08/30 02:59:12;;;;;;;12.13;10.00;;;;;;;13.24;71.11;98052.38;5033466;28;20377;-73
2021/08/30 03:01:38;;;;;;;12.07;10.05;;;;;;;13.28;71.33;98050.56;5033227;28;20017;-72
2021/08/30 03:04:04;;;;;;;13.27;9.75;;;;;;;13.27;71.11;98048.16;5033256;28;20087;-72
2021/08/30 03:06:30;;;;;;;12.27;9.55;;;;;;;13.27;71.30;98051.72;5033597;28;20021;-72
2021/08/30 03:08:55;;;;;;;10.85;9.43;;;;;;;13.21;71.23;98050.28;5034019;28;20376;-72
2021/08/30 03:11:23;;;;;;;12.88;9.68;;;;;;;13.26;71.42;98055.59;5034022;28;20108;-72
2021/08/30 03:13:50;;;;;;;12.50;9.00;;;;;;;13.28;71.17;98060.78;5034002;28;20017;-72
2021/08/30 03:16:16;;;;;;;10.90;9.30;;;;;;;13.26;71.39;98061.09;5033729;28;20041;-72
2021/08/30 03:18:42;;;;;;;10.80;9.20;;;;;;;13.21;71.15;98058.53;5034490;28;20104;-72
2021/08/30 03:21:09;;;;;;;12.93;9.55;;;;;;;13.31;71.53;98057.41;5034236;28;20112;-72
2021/08/30 03:23:40;;;;;;;12.77;10.20;;;;;;;13.30;71.57;98053.81;5033850;28;20029;-71
2021/08/30 03:26:06;;;;;;;10.32;9.18;;;;;;;13.37;71.47;98054.16;5034177;28;20021;-71
2021/08/30 03:28:34;;;;;;;12.23;9.95;;;;;;;13.39;71.46;98051.88;5033623;28;20433;-72
2021/08/30 03:31:00;;;;;;;13.50;9.02;;;;;;;13.39;71.53;98046.38;5031568;28;20047;-71
2021/08/30 03:33:27;;;;;;;13.13;9.23;;;;;;;13.41;71.37;98051.59;5034167;28;20022;-71
2021/08/30 03:35:52;;;;;;;16.75;10.13;;;;;;;13.45;71.54;98047.03;5034056;28;20025;-72
2021/08/30 03:38:21;;;;;;;12.23;9.18;;;;;;;13.50;71.43;98054.34;5031143;28;20044;-71
2021/08/30 03:40:49;;;;;;;13.90;11.20;;;;;;;13.52;71.39;98057.56;5034007;28;20025;-71
2021/08/30 03:43:15;;;;;;;12.27;9.50;;;;;;;13.56;71.33;98061.31;5015828;28;20398;-71
2021/08/30 03:45:42;;;;;;;13.23;9.75;;;;;;;13.58;71.41;98053.53;5033555;28;20029;-71
2021/08/30 03:48:08;;;;;;;13.70;10.57;;;;;;;13.58;71.24;98050.75;5033723;28;20057;-71
2021/08/30 03:50:35;;;;;;;13.95;10.43;;;;;;;13.59;71.10;98051.56;5033549;28;20033;-72
2021/08/30 03:53:02;;;;;;;15.85;11.18;;;;;;;13.47;71.05;98052.22;5033938;28;20018;-72
2021/08/30 03:55:28;;;;;;;14.40;10.85;;;;;;;13.45;71.17;98052.53;5033602;28;20473;-72
2021/08/30 03:57:57;;;;;;;14.63;10.63;;;;;;;13.46;71.16;98062.41;5033138;28;20030;-71
2021/08/30 04:00:22;;;;;;;15.45;11.10;;;;;;;13.41;70.94;98059.84;5033090;28;20013;-71
2021/08/30 04:02:49;;;;;;;13.55;10.45;;;;;;;13.37;71.17;98059.66;5032982;28;20017;-72
2021/08/30 04:05:19;;;;;;;13.52;9.88;;;;;;;13.30;71.18;98058.53;5032943;28;20025;-72
2021/08/30 04:07:45;;;;;;;14.95;11.48;;;;;;;13.30;71.13;98058.53;5032610;28;20021;-71
2021/08/30 04:10:11;;;;;;;14.13;11.32;;;;;;;13.28;71.10;98055.28;5032671;28;20021;-72
2021/08/30 04:12:36;;;;;;;16.50;11.70;;;;;;;13.30;71.14;98061.28;5032780;28;20024;-72
2021/08/30 04:15:03;;;;;;;16.50;11.63;;;;;;;13.30;71.83;98056.56;5032470;28;20080;-73
2021/08/30 04:17:28;;;;;;;16.63;12.27;;;;;;;13.23;71.19;98053.50;5032727;28;20052;-72
2021/08/30 04:19:53;;;;;;;15.38;11.70;;;;;;;13.19;71.23;98064.34;5014995;28;20155;-72
2021/08/30 04:22:19;;;;;;;14.30;10.90;;;;;;;13.08;71.15;98066.63;5029916;28;20386;-72
2021/08/30 04:24:44;;;;;;;14.52;10.48;;;;;;;13.10;71.40;98067.09;5032532;28;20064;-73
2021/08/30 04:27:10;;;;;;;14.98;10.63;;;;;;;13.19;71.68;98064.34;5032500;28;20033;-73
2021/08/30 04:29:36;;;;;;;13.05;10.95;;;;;;;13.29;71.67;98070.69;5032421;28;20018;-72
2021/08/30 04:32:02;;;;;;;13.77;10.48;;;;;;;13.36;71.80;98071.81;5032232;28;20025;-72
2021/08/30 04:34:27;;;;;;;13.80;10.52;;;;;;;13.43;71.68;98073.28;5032333;28;20024;-72
2021/08/30 04:36:53;;;;;;;15.27;11.05;;;;;;;13.44;71.28;98072.16;5032290;28;20096;-72
2021/08/30 04:39:18;;;;;;;14.90;10.55;;;;;;;13.48;71.23;98076.69;5031230;28;20078;-73
2021/08/30 04:41:44;;;;;;;14.00;10.48;;;;;;;13.51;71.48;98075.25;5032099;28;20033;-72
2021/08/30 04:44:11;;;;;;;13.55;10.48;;;;;;;13.55;71.52;98071.50;5032545;28;20140;-72
2021/08/30 04:46:36;;;;;;;16.00;11.15;;;;;;;13.61;71.50;98077.66;5033118;28;20116;-72
2021/08/30 04:49:02;;;;;;;13.15;10.90;;;;;;;13.63;71.45;98080.91;5033010;28;20108;-72
2021/08/30 04:51:27;;;;;;;13.55;9.88;;;;;;;13.68;71.64;98080.72;5033129;28;20033;-73
2021/08/30 04:53:52;;;;;;;15.13;10.13;;;;;;;13.69;71.49;98087.84;5015328;28;20036;-72
2021/08/30 04:56:18;;;;;;;14.32;10.80;;;;;;;13.76;71.63;98089.31;5033163;28;20032;-72
2021/08/30 04:58:43;;;;;;;18.80;13.55;;;;;;;13.81;71.46;98097.41;5032739;28;20034;-73
2021/08/30 05:01:09;;;;;;;14.48;11.07;;;;;;;13.77;71.34;98097.25;5032800;28;20052;-72
2021/08/30 05:03:34;;;;;;;16.00;10.88;;;;;;;13.81;71.23;98097.41;5032920;28;20120;-72
2021/08/30 05:05:59;;;;;;;14.80;10.18;;;;;;;13.84;71.15;98097.56;5032888;28;20026;-73
2021/08/30 05:08:25;;;;;;;13.05;10.27;;;;;;;13.88;71.28;98097.72;5032860;28;20099;-72
2021/08/30 05:10:50;;;;;;;11.88;9.88;;;;;;;13.89;71.25;98091.06;5032803;28;20128;-72
2021/08/30 05:13:16;;;;;;;12.77;10.77;;;;;;;13.85;71.20;98095.63;5032783;28;20041;-73
2021/08/30 05:15:41;;;;;;;15.05;12.05;;;;;;;13.86;71.08;98085.41;5032513;28;20048;-73
2021/08/30 05:18:07;;;;;;;25.85;14.35;;;;;;;13.84;70.93;98086.56;5032573;28;20032;-73
2021/08/30 05:20:32;;;;;;;33.67;17.77;;;;;;;13.81;71.01;98083.63;5032541;28;20478;-73
2021/08/30 05:22:57;;;;;;;19.77;12.82;;;;;;;13.81;71.29;98092.72;5032579;28;20147;-73
2021/08/30 05:25:23;;;;;;;21.58;12.18;;;;;;;13.82;71.30;98090.75;5014824;28;20090;-73
2021/08/30 05:27:51;;;;;;;30.33;15.60;;;;;;;13.74;71.37;98094.34;5032559;28;20677;-73
2021/08/30 05:30:16;;;;;;;33.08;16.23;;;;;;;13.66;71.14;98096.75;5033246;28;20029;-72
2021/08/30 05:32:42;;;;;;;22.05;13.40;;;;;;;13.59;71.05;98095.66;5032176;28;20048;-72
2021/08/30 05:35:08;;;;;;;17.85;12.23;;;;;;;13.57;71.12;98098.75;5032547;28;20220;-72
2021/08/30 05:37:33;;;;;;;21.42;12.95;;;;;;;13.53;71.29;98095.00;5032562;28;20108;-72
2021/08/30 05:39:58;;;;;;;25.38;15.20;;;;;;;13.51;71.40;98091.78;5032501;28;20488;-71
2021/08/30 05:42:24;;;;;;;26.67;16.17;;;;;;;13.51;71.29;98091.78;5032836;28;20134;-72
2021/08/30 05:44:49;;;;;;;23.75;14.60;;;;;;;13.52;71.63;98080.41;5032295;28;20420;-72
2021/08/30 05:47:14;;;;;;;20.42;14.43;;;;;;;13.50;71.29;98090.16;5014637;28;20474;-71
2021/08/30 05:49:40;;;;;;;16.90;12.23;;;;;;;13.46;71.40;98087.22;5031857;28;20049;-71
2021/08/30 05:52:05;;;;;;;16.75;11.75;;;;;;;13.51;71.62;98091.78;5031939;28;20378;-72
2021/08/30 05:54:31;;;;;;;14.40;11.32;;;;;;;13.57;71.75;98090.47;5014263;28;20029;-72
2021/08/30 05:56:56;;;;;;;16.42;12.20;;;;;;;13.54;71.64;98085.63;5031537;28;20454;-71
2021/08/30 05:59:21;;;;;;;21.52;13.95;;;;;;;13.55;71.89;98090.78;5031564;28;20021;-72
2021/08/30 06:01:47;;;;;;;53.22;30.52;;;;;;;13.56;71.47;98088.84;5013999;28;20109;-72
2021/08/30 06:04:12;;;;;;;76.47;38.17;;;;;;;13.54;71.69;98082.84;5031332;28;20470;-72
2021/08/30 06:06:38;;;;;;;67.53;42.00;;;;;;;13.60;71.83;98091.75;5032004;28;20363;-71
2021/08/30 06:09:03;;;;;;;51.67;27.35;;;;;;;13.61;71.91;98080.44;5014305;28;20028;-71
2021/08/30 06:11:28;;;;;;;51.92;24.38;;;;;;;13.62;71.64;98076.53;5032123;28;20521;-71
2021/08/30 06:13:54;;;;;;;22.52;14.23;;;;;;;13.61;71.82;98082.34;5031944;28;20033;-71
2021/08/30 06:16:19;;;;;;;17.40;12.07;;;;;;;13.67;71.74;98075.53;5011009;28;20052;-71
2021/08/30 06:18:45;;;;;;;15.20;11.60;;;;;;;13.71;72.02;98084.78;5011070;28;20499;-71
2021/08/30 06:21:10;;;;;;;15.25;12.05;;;;;;;13.69;72.04;98076.81;5012129;28;20077;-72
2021/08/30 06:23:35;;;;;;;18.63;12.48;;;;;;;13.68;71.96;98082.69;5010819;28;20030;-71
2021/08/30 06:26:01;;;;;;;19.05;12.75;;;;;;;13.65;71.96;98080.56;5012520;28;20355;-71
2021/08/30 06:28:27;;;;;;;16.75;12.40;;;;;;;13.63;72.13;98094.69;5011952;28;20475;-72
2021/08/30 06:30:53;;;;;;;24.60;15.63;;;;;;;13.57;72.12;98089.66;5011142;28;20041;-71
2021/08/30 06:33:18;;;;;;;32.58;16.55;;;;;;;13.55;72.39;98092.75;5012319;28;20049;-70
2021/08/30 06:35:43;;;;;;;30.40;15.27;;;;;;;13.54;72.07;98085.63;5012047;28;20544;-71
2021/08/30 06:38:10;;;;;;;25.33;14.70;;;;;;;13.48;72.79;98084.16;5012406;28;20041;-72
2021/08/30 06:40:36;;;;;;;17.60;13.20;;;;;;;13.44;72.54;98074.91;5012014;28;20554;-72
2021/08/30 06:43:01;;;;;;;16.80;12.27;;;;;;;13.49;72.52;98083.81;5012117;28;20026;-72
2021/08/30 06:45:28;;;;;;;20.42;13.45;;;;;;;13.48;72.78;98079.44;5012316;28;20165;-72
2021/08/30 06:47:54;;;;;;;21.67;13.98;;;;;;;13.44;72.55;98086.75;5012365;28;20037;-71
2021/08/30 06:50:19;;;;;;;34.17;16.85;;;;;;;13.47;72.63;98088.84;5012244;28;20030;-72
2021/08/30 06:52:45;;;;;;;28.92;15.23;;;;;;;13.50;72.44;98093.69;5012185;28;20397;-71
2021/08/30 06:55:10;;;;;;;36.90;16.30;;;;;;;13.48;72.51;98095.97;5012304;28;20512;-72
2021/08/30 06:57:36;;;;;;;30.55;15.63;;;;;;;13.50;72.50;98084.63;5012325;28;20034;-71
2021/08/30 07:00:06;;;;;;;19.25;12.93;;;;;;;13.51;72.72;98100.81;5012261;28;20105;-71
2021/08/30 07:02:31;;;;;;;;;;;;;;;13.49;72.58;98094.84;5014116;28;20054;-72
2021/08/30 07:04:57;;;;;;;14.77;11.45;;;;;;;13.45;73.07;98093.06;5015906;28;19971;-72
2021/08/30 07:07:22;;;;;;;25.23;15.85;;;;;;;13.41;72.64;98095.66;5014326;28;20018;-72
2021/08/30 07:09:48;;;;;;;23.52;14.05;;;;;;;13.37;72.69;98100.97;5015912;28;20060;-72
2021/08/30 07:12:13;;;;;;;28.90;16.10;;;;;;;13.39;73.08;98087.69;5015871;28;20100;-72
2021/08/30 07:14:39;;;;;;;18.70;12.23;;;;;;;13.39;74.39;98093.19;5016352;28;20022;-72
2021/08/30 07:17:04;;;;;;;14.95;11.90;;;;;;;13.33;73.27;98088.19;5035604;28;20021;-73
2021/08/30 07:19:29;;;;;;;15.15;11.93;;;;;;;13.40;73.46;98086.56;5035437;28;20101;-73
2021/08/30 07:21:55;;;;;;;14.55;11.20;;;;;;;13.49;73.29;98086.56;5017075;28;20030;-71
2021/08/30 07:24:20;;;;;;;14.35;9.95;;;;;;;13.49;73.42;98094.03;5034974;28;20065;-72
2021/08/30 07:26:46;;;;;;;13.57;10.15;;;;;;;13.49;73.47;98103.09;5034353;28;20022;-72
2021/08/30 07:29:11;;;;;;;12.98;10.20;;;;;;;13.42;72.71;98094.53;5034577;28;20424;-71
2021/08/30 07:31:37;;;;;;;15.45;11.38;;;;;;;13.33;73.54;98102.75;5034860;28;20022;-72
2021/08/30 07:34:02;;;;;;;15.52;10.88;;;;;;;13.22;73.39;98107.75;5016815;28;20029;-72
2021/08/30 07:36:28;;;;;;;12.57;10.23;;;;;;;13.25;73.52;98109.88;5033044;28;20036;-72
2021/08/30 07:38:53;;;;;;;14.57;10.52;;;;;;;13.27;73.67;98108.75;5031657;28;20025;-70
2021/08/30 07:41:19;;;;;;;14.35;10.77;;;;;;;13.23;73.73;98105.84;5031079;28;20381;-72
2021/08/30 07:43:44;;;;;;;12.82;10.50;;;;;;;13.29;73.70;98107.28;5031373;28;20083;-71
2021/08/30 07:46:09;;;;;;;12.80;9.77;;;;;;;13.30;73.74;98110.84;5015227;28;20099;-72
2021/08/30 07:48:35;;;;;;;13.68;10.32;;;;;;;13.30;74.15;98108.09;5029711;28;20424;-71
2021/08/30 07:51:00;;;;;;;13.68;10.48;;;;;;;13.26;74.19;98107.91;5030110;28;20608;-72
2021/08/30 07:53:27;;;;;;;14.10;10.93;;;;;;;13.25;74.34;98104.38;5013616;28;20037;-72
2021/08/30 07:55:53;;;;;;;10.77;8.55;;;;;;;13.27;74.60;98115.03;5030152;28;20466;-71
2021/08/30 07:58:19;;;;;;;15.15;10.63;;;;;;;13.23;74.42;98114.91;5030418;28;20368;-70
2021/08/30 08:00:44;;;;;;;13.55;9.35;;;;;;;13.28;74.36;98111.16;5030846;28;20033;-71
2021/08/30 08:03:10;;;;;;;12.20;9.05;;;;;;;13.31;73.94;98109.72;5031743;28;20108;-71
2021/08/30 08:05:35;;;;;;;11.45;9.05;;;;;;;13.31;74.28;98115.22;5025150;28;20041;-71
2021/08/30 08:08:04;;;;;;;32.85;16.10;;;;;;;13.29;74.54;98115.53;5029309;28;20117;-70
2021/08/30 08:10:29;;;;;;;12.80;9.15;;;;;;;13.35;74.28;98114.25;5027826;28;20063;-71
2021/08/30 08:12:54;;;;;;;10.40;8.30;;;;;;;13.43;74.46;98120.13;5021879;28;20045;-70
2021/08/30 08:15:20;;;;;;;12.55;9.30;;;;;;;13.46;74.61;98125.78;5015906;28;20545;-70
2021/08/30 08:17:45;;;;;;;10.07;7.95;;;;;;;13.45;74.82;98129.66;5019983;28;20029;-72
2021/08/30 08:20:11;;;;;;;11.13;9.20;;;;;;;13.49;74.71;98127.91;5024478;28;20029;-72
2021/08/30 08:22:37;;;;;;;15.98;10.70;;;;;;;13.51;74.53;98125.63;5025263;28;20038;-70
2021/08/30 08:25:04;;;;;;;29.00;14.05;;;;;;;13.59;74.46;98125.94;5030830;28;20057;-72
2021/08/30 08:27:31;;;;;;;50.60;20.77;;;;;;;13.69;74.93;98134.69;5030809;28;20017;-73
2021/08/30 08:29:56;;;;;;;46.10;21.92;;;;;;;13.76;74.78;98141.66;5030706;28;20113;-73
2021/08/30 08:32:22;;;;;;;42.65;21.30;;;;;;;13.78;74.33;98140.22;5031290;28;20104;-73
2021/08/30 08:34:47;;;;;;;46.72;22.08;;;;;;;13.78;74.16;98133.88;5027064;28;20021;-73
2021/08/30 08:37:12;;;;;;;18.17;11.85;;;;;;;13.79;74.01;98138.25;5030976;28;20034;-71
2021/08/30 08:39:38;;;;;;;46.58;18.55;;;;;;;13.80;74.57;98139.88;5026799;28;20036;-71
2021/08/30 08:42:04;;;;;;;44.95;18.80;;;;;;;13.82;74.17;98137.63;5030950;28;20022;-70
2021/08/30 08:44:29;;;;;;;33.00;15.57;;;;;;;13.83;74.18;98140.06;5028438;28;20025;-72
2021/08/30 08:46:55;;;;;;;54.05;26.98;;;;;;;13.80;74.21;98145.41;5023781;28;20030;-72
2021/08/30 08:49:20;;;;;;;56.53;29.15;;;;;;;13.77;74.07;98148.81;5030288;28;20026;-72
2021/08/30 08:51:46;;;;;;;39.67;20.55;;;;;;;13.83;74.53;98139.25;5023950;28;20033;-74
2021/08/30 08:54:13;;;;;;;14.98;11.70;;;;;;;13.88;74.26;98147.34;5012825;28;20029;-72
2021/08/30 08:56:38;;;;;;;13.00;10.30;;;;;;;13.89;74.07;98137.13;5029553;28;20043;-72
2021/08/30 08:59:04;;;;;;;14.10;10.65;;;;;;;13.88;73.98;98144.59;5027114;28;20033;-71
2021/08/30 09:01:35;;;;;;;11.10;9.63;;;;;;;13.85;74.35;98153.50;5031098;28;20065;-71
2021/08/30 09:04:01;;;;;;;16.05;11.05;;;;;;;13.86;74.02;98148.81;5029351;28;20044;-72
2021/08/30 09:06:47;;;;;;;13.32;11.10;;;;;;;13.86;74.25;98148.81;5027937;28;20034;-70
2021/08/30 09:09:16;;;;;;;18.52;11.65;;;;;;;13.88;74.36;98143.75;5028058;28;20091;-74
2021/08/30 09:11:44;;;;;;;21.38;11.88;;;;;;;13.92;74.13;98141.97;5030573;28;20091;-70
2021/08/30 09:14:16;;;;;;;18.55;11.60;;;;;;;13.94;73.97;98145.22;5029171;28;20821;-71
2021/08/30 09:16:41;;;;;;;15.73;11.05;;;;;;;13.90;74.05;98134.03;5026295;28;20595;-70
2021/08/30 09:19:09;;;;;;;12.77;10.30;;;;;;;13.99;74.01;98136.78;5029523;28;20045;-72
2021/08/30 09:21:41;;;;;;;12.73;10.27;;;;;;;14.08;74.51;98140.34;5030449;28;20042;-72
2021/08/30 09:24:24;;;;;;;11.95;9.82;;;;;;;14.13;74.09;98136.59;5029966;28;20456;-71
2021/08/30 09:26:55;;;;;;;12.07;9.80;;;;;;;14.20;74.21;98142.41;5028660;28;20083;-70
2021/08/30 09:29:26;;;;;;;19.05;11.73;;;;;;;14.18;74.23;98144.69;5030366;28;20037;-71
2021/08/30 09:32:11;;;;;;;17.15;9.93;;;;;;;14.12;74.32;98141.31;5026879;28;20021;-71
2021/08/30 09:34:46;;;;;;;80.60;27.58;;;;;;;14.08;73.93;98142.28;5028322;28;20025;-70
2021/08/30 09:37:19;;;;;;;76.78;25.17;;;;;;;14.09;73.95;98158.50;5010164;28;20026;-74
2021/08/30 09:39:50;;;;;;;73.60;21.92;;;;;;;14.14;74.12;98149.25;5028899;28;20045;-70
2021/08/30 09:42:16;;;;;;;52.78;19.73;;;;;;;14.16;74.05;98151.69;5029308;28;20095;-70
2021/08/30 09:44:41;;;;;;;29.00;13.80;;;;;;;14.12;74.05;98154.28;5027026;28;20037;-71
2021/08/30 09:47:12;;;;;;;31.58;13.75;;;;;;;14.08;73.96;98154.13;5027537;28;20029;-71
2021/08/30 09:49:39;;;;;;;27.73;12.57;;;;;;;14.04;74.08;98158.66;5025619;28;20029;-72
2021/08/30 09:52:05;;;;;;;19.35;10.02;;;;;;;14.09;74.08;98150.22;5026457;28;20025;-71
2021/08/30 09:54:30;;;;;;;21.85;11.13;;;;;;;14.09;74.00;98154.91;5029527;28;20041;-71
2021/08/30 09:56:57;;;;;;;35.10;15.88;;;;;;;14.04;74.23;98152.38;5024716;28;20104;-71
2021/08/30 09:59:24;;;;;;;28.95;15.23;;;;;;;14.06;74.35;98161.13;5024460;28;20055;-71
2021/08/30 10:01:51;;;;;;;29.35;15.35;;;;;;;14.10;74.33;98156.53;5026604;28;20037;-71
2021/08/30 10:04:20;;;;;;;24.58;13.77;;;;;;;14.11;74.43;98160.94;5028737;28;20038;-71
2021/08/30 10:06:48;;;;;;;25.67;14.00;;;;;;;14.12;74.49;98163.38;5011803;28;20034;-72
2021/08/30 10:09:15;;;;;;;30.20;14.50;;;;;;;14.13;74.08;98155.91;5029557;28;20021;-72
2021/08/30 10:11:42;;;;;;;23.80;13.25;;;;;;;14.20;74.46;98156.22;5030367;28;20378;-72
2021/08/30 10:14:14;;;;;;;18.08;12.00;;;;;;;14.26;74.56;98159.63;5029323;28;20116;-73
2021/08/30 10:16:44;;;;;;;24.17;13.35;;;;;;;14.28;74.37;98160.06;5029729;28;20037;-72
2021/08/30 10:19:10;;;;;;;18.58;12.18;;;;;;;14.25;74.16;98167.06;5028373;28;20293;-71
2021/08/30 10:21:44;;;;;;;22.75;14.55;;;;;;;14.19;74.72;98162.06;5028159;28;20556;-70
2021/08/30 10:24:13;;;;;;;22.98;14.88;;;;;;;14.13;74.35;98162.22;5009122;28;20060;-70
2021/08/30 10:26:41;;;;;;;;;;;;;;;14.12;74.30;98155.09;5025362;28;20116;-71
2021/08/30 10:29:07;;;;;;;18.48;13.18;;;;;;;14.13;74.50;98156.72;5024184;28;19954;-72
2021/08/30 10:31:32;;;;;;;16.60;12.75;;;;;;;14.16;74.42;98152.47;5023433;28;20033;-70
2021/08/30 10:33:59;;;;;;;17.23;12.82;;;;;;;14.22;74.65;98150.38;5026368;28;20040;-72
2021/08/30 10:36:27;;;;;;;21.45;15.05;;;;;;;14.26;74.80;98148.59;5025399;28;20044;-73
2021/08/30 10:39:14;;;;;;;23.63;16.85;;;;;;;14.27;74.60;98153.75;5021253;28;20022;-70
2021/08/30 10:41:43;;;;;;;19.17;13.18;;;;;;;14.33;74.46;98151.63;5033208;28;20090;-71
2021/08/30 10:44:22;;;;;;;;;;;;;;;14.39;74.82;98146.75;5030855;28;20116;-70
2021/08/30 10:46:50;;;;;;;24.48;17.15;;;;;;;14.43;75.20;98145.75;5028022;28;19982;-72
2021/08/30 10:49:31;;;;;;;22.30;15.65;;;;;;;14.41;75.05;98150.78;5027043;28;20636;-71
2021/08/30 10:52:17;;;;;;;19.63;14.38;;;;;;;14.43;75.12;98144.97;5028827;28;20087;-72
2021/08/30 10:54:53;;;;;;;19.88;14.50;;;;;;;14.44;75.32;98147.38;5016035;28;20455;-71
2021/08/30 10:57:30;;;;;;;19.20;14.70;;;;;;;14.44;75.38;98152.91;5034138;28;20065;-71
2021/08/30 10:59:57;;;;;;;19.05;14.23;;;;;;;14.53;75.50;98152.88;5033916;28;20037;-72
2021/08/30 11:02:51;;;;;;;22.17;17.67;;;;;;;14.55;75.29;98152.56;5034673;28;20389;-71
2021/08/30 11:05:29;;;;;;;25.67;22.25;;;;;;;14.47;75.24;98151.41;5034660;28;20033;-71
2021/08/30 11:07:54;;;;;;;18.42;15.35;;;;;;;14.49;75.27;98149.13;5033999;28;20083;-72
2021/08/30 11:10:25;;;;;;;31.15;27.90;;;;;;;14.54;76.11;98148.16;5029941;28;20033;-72
2021/08/30 11:12:55;;;;;;;72.57;64.95;;;;;;;14.56;75.41;98154.16;5011925;28;20103;-72
2021/08/30 11:15:20;;;;;;;57.25;51.08;;;;;;;14.66;75.24;98153.00;5033985;28;20049;-72
2021/08/30 11:17:46;;;;;;;21.02;17.67;;;;;;;14.78;75.49;98153.13;5027283;28;20547;-71
2021/08/30 11:20:16;;;;;;;45.38;29.35;;;;;;;14.88;75.30;98151.94;5028312;28;20060;-72
2021/08/30 11:22:41;;;;;;;29.30;21.05;;;;;;;14.88;75.11;98155.50;5027117;28;20021;-71
2021/08/30 11:25:07;;;;;;;23.45;18.38;;;;;;;14.85;74.98;98150.69;5031121;28;20474;-72